createdAt,value
2023-04-15T00:00:28.681Z,21.82
2023-04-15T00:01:28.696Z,21.81
2023-04-15T00:02:28.775Z,21.81
2023-04-15T00:03:28.892Z,21.79
2023-04-15T00:04:28.884Z,21.79
2023-04-15T00:05:28.665Z,21.80
2023-04-15T00:06:28.657Z,21.79
2023-04-15T00:07:28.640Z,21.77
2023-04-15T00:08:28.639Z,21.77
2023-04-15T00:09:28.633Z,21.77
2023-04-15T00:10:28.642Z,21.77
2023-04-15T00:11:28.636Z,21.76
2023-04-15T00:12:28.605Z,21.77
2023-04-15T00:13:28.613Z,21.76
2023-04-15T00:14:28.592Z,21.76
2023-04-15T00:15:28.599Z,21.75
2023-04-15T00:16:28.620Z,21.74
2023-04-15T00:17:28.594Z,21.74
2023-04-15T00:18:28.593Z,21.76
2023-04-15T00:19:28.621Z,21.75
2023-04-15T00:20:28.639Z,21.75
2023-04-15T00:21:28.639Z,21.74
2023-04-15T00:22:28.665Z,21.75
2023-04-15T00:23:28.714Z,21.73
2023-04-15T00:24:28.739Z,21.73
2023-04-15T00:25:28.747Z,21.74
2023-04-15T00:26:28.755Z,21.72
2023-04-15T00:27:28.791Z,21.75
2023-04-15T00:28:28.839Z,21.72
2023-04-15T00:29:28.859Z,21.72
2023-04-15T00:30:28.867Z,21.71
2023-04-15T00:31:28.927Z,21.73
2023-04-15T00:32:28.929Z,21.71
2023-04-15T00:33:28.953Z,21.72
2023-04-15T00:34:28.983Z,21.72
2023-04-15T00:35:29.006Z,21.72
2023-04-15T00:36:29.022Z,21.71
2023-04-15T00:37:29.042Z,21.72
2023-04-15T00:38:29.059Z,21.72
2023-04-15T00:39:29.103Z,21.73
2023-04-15T00:40:29.115Z,21.74
2023-04-15T00:41:29.129Z,21.72
2023-04-15T00:42:29.156Z,21.72
2023-04-15T00:43:29.200Z,21.74
2023-04-15T00:44:29.237Z,21.73
2023-04-15T00:45:29.304Z,21.73
2023-04-15T00:46:29.254Z,21.72
2023-04-15T00:47:29.290Z,21.70
2023-04-15T00:48:29.305Z,21.73
2023-04-15T00:49:29.314Z,21.72
2023-04-15T00:50:29.336Z,21.72
2023-04-15T00:51:29.373Z,21.72
2023-04-15T00:52:29.397Z,21.72
2023-04-15T00:53:29.444Z,21.71
2023-04-15T00:54:29.440Z,21.71
2023-04-15T00:55:29.453Z,21.71
2023-04-15T00:56:29.474Z,21.68
2023-04-15T00:57:29.498Z,21.69
2023-04-15T00:58:29.533Z,21.69
2023-04-15T00:59:29.539Z,21.69
2023-04-15T01:00:29.566Z,21.68
2023-04-15T01:01:29.597Z,21.68
2023-04-15T01:02:29.792Z,21.68
2023-04-15T01:03:29.838Z,21.67
2023-04-15T01:04:29.787Z,21.65
2023-04-15T01:05:29.673Z,21.63
2023-04-15T01:06:29.699Z,21.63
2023-04-15T01:07:29.705Z,21.61
2023-04-15T01:08:29.729Z,21.60
2023-04-15T01:09:29.800Z,21.63
2023-04-15T01:10:29.778Z,21.60
2023-04-15T01:11:29.804Z,21.60
2023-04-15T01:12:29.857Z,21.60
2023-04-15T01:13:29.841Z,21.56
2023-04-15T01:14:29.869Z,21.55
2023-04-15T01:15:29.911Z,21.55
2023-04-15T01:16:30.008Z,21.53
2023-04-15T01:17:30.014Z,21.51
2023-04-15T01:18:29.955Z,21.50
2023-04-15T01:19:29.983Z,21.50
2023-04-15T01:20:29.984Z,21.48
2023-04-15T01:21:30.041Z,21.47
2023-04-15T01:22:30.033Z,21.46
2023-04-15T01:23:30.057Z,21.46
2023-04-15T01:24:30.080Z,21.42
2023-04-15T01:25:30.085Z,21.42
2023-04-15T01:26:30.121Z,21.43
2023-04-15T01:27:30.136Z,21.37
2023-04-15T01:28:30.163Z,21.36
2023-04-15T01:29:30.175Z,21.36
2023-04-15T01:30:30.195Z,21.36
2023-04-15T01:31:30.237Z,21.35
2023-04-15T01:32:30.254Z,21.32
2023-04-15T01:33:30.269Z,21.32
2023-04-15T01:34:30.303Z,21.30
2023-04-15T01:35:30.334Z,21.30
2023-04-15T01:36:30.315Z,21.29
2023-04-15T01:37:30.371Z,21.25
2023-04-15T01:38:30.366Z,21.25
2023-04-15T01:39:30.389Z,21.22
2023-04-15T01:40:30.428Z,21.25
2023-04-15T01:41:30.436Z,21.20
2023-04-15T01:42:30.457Z,21.21
2023-04-15T01:43:30.488Z,21.16
2023-04-15T01:44:30.514Z,21.15
2023-04-15T01:45:30.541Z,21.15
2023-04-15T01:46:30.582Z,21.17
2023-04-15T01:47:30.576Z,21.13
2023-04-15T01:48:30.601Z,21.10
2023-04-15T01:49:30.617Z,21.06
2023-04-15T01:50:31.145Z,21.08
2023-04-15T01:51:30.662Z,21.09
2023-04-15T01:52:30.688Z,21.05
2023-04-15T01:53:30.714Z,21.06
2023-04-15T01:54:30.730Z,21.03
2023-04-15T01:55:30.759Z,21.03
2023-04-15T01:56:30.782Z,21.03
2023-04-15T01:57:30.797Z,21.04
2023-04-15T01:58:30.829Z,21.01
2023-04-15T01:59:30.857Z,20.96
2023-04-15T02:00:30.878Z,20.94
2023-04-15T02:01:30.987Z,20.94
2023-04-15T02:02:31.067Z,20.97
2023-04-15T02:03:31.035Z,20.91
2023-04-15T02:04:30.947Z,20.91
2023-04-15T02:05:30.996Z,20.88
2023-04-15T02:06:30.989Z,20.88
2023-04-15T02:07:31.013Z,20.84
2023-04-15T02:08:31.037Z,20.84
2023-04-15T02:09:31.075Z,20.83
2023-04-15T02:10:31.101Z,20.80
2023-04-15T02:11:31.102Z,20.88
2023-04-15T02:12:31.120Z,20.82
2023-04-15T02:13:31.161Z,20.81
2023-04-15T02:14:31.184Z,20.78
2023-04-15T02:15:31.188Z,20.74
2023-04-15T02:16:31.227Z,20.75
2023-04-15T02:17:31.242Z,20.74
2023-04-15T02:18:31.275Z,20.67
2023-04-15T02:19:31.292Z,20.68
2023-04-15T02:20:31.323Z,20.67
2023-04-15T02:21:31.400Z,20.62
2023-04-15T02:22:31.348Z,20.63
2023-04-15T02:23:31.416Z,20.60
2023-04-15T02:24:31.398Z,20.60
2023-04-15T02:25:31.424Z,20.59
2023-04-15T02:26:31.437Z,20.54
2023-04-15T02:27:31.459Z,20.58
2023-04-15T02:28:31.484Z,20.55
2023-04-15T02:29:31.528Z,20.53
2023-04-15T02:30:31.545Z,20.53
2023-04-15T02:31:31.575Z,20.51
2023-04-15T02:32:31.602Z,20.47
2023-04-15T02:33:31.606Z,20.46
2023-04-15T02:34:31.629Z,20.45
2023-04-15T02:35:31.647Z,20.51
2023-04-15T02:36:31.647Z,20.47
2023-04-15T02:37:31.681Z,20.42
2023-04-15T02:38:31.707Z,20.42
2023-04-15T02:39:31.726Z,20.42
2023-04-15T02:40:31.763Z,20.37
2023-04-15T02:41:31.757Z,20.37
2023-04-15T02:42:31.800Z,20.33
2023-04-15T02:43:31.808Z,20.35
2023-04-15T02:44:31.849Z,20.31
2023-04-15T02:45:31.880Z,20.32
2023-04-15T02:46:32.072Z,20.31
2023-04-15T02:47:31.926Z,20.28
2023-04-15T02:48:31.932Z,20.24
2023-04-15T02:49:31.972Z,20.27
2023-04-15T02:50:31.992Z,20.23
2023-04-15T02:51:32.032Z,20.19
2023-04-15T02:52:32.030Z,20.22
2023-04-15T02:53:32.060Z,20.22
2023-04-15T02:54:32.085Z,20.18
2023-04-15T02:55:32.133Z,20.15
2023-04-15T02:56:32.142Z,20.15
2023-04-15T02:57:32.174Z,20.12
2023-04-15T02:58:32.196Z,20.16
2023-04-15T02:59:32.218Z,20.11
2023-04-15T03:00:32.259Z,20.07
2023-04-15T03:01:32.307Z,20.04
2023-04-15T03:02:32.371Z,20.05
2023-04-15T03:03:32.447Z,20.03
2023-04-15T03:04:32.346Z,20.02
2023-04-15T03:05:32.407Z,20.03
2023-04-15T03:06:32.406Z,19.99
2023-04-15T03:07:32.434Z,19.99
2023-04-15T03:08:32.464Z,20.00
2023-04-15T03:09:32.493Z,19.97
2023-04-15T03:10:32.514Z,20.02
2023-04-15T03:11:32.899Z,19.93
2023-04-15T03:12:32.562Z,19.98
2023-04-15T03:13:32.593Z,19.97
2023-04-15T03:14:32.631Z,19.92
2023-04-15T03:15:32.656Z,19.89
2023-04-15T03:16:32.675Z,19.88
2023-04-15T03:17:32.694Z,19.88
2023-04-15T03:18:32.721Z,19.90
2023-04-15T03:19:32.747Z,19.85
2023-04-15T03:20:32.829Z,19.86
2023-04-15T03:21:32.796Z,19.83
2023-04-15T03:22:32.824Z,19.86
2023-04-15T03:23:32.913Z,19.86
2023-04-15T03:24:32.878Z,19.85
2023-04-15T03:25:32.913Z,19.79
2023-04-15T03:26:32.976Z,19.79
2023-04-15T03:27:32.954Z,19.76
2023-04-15T03:28:33.002Z,19.80
2023-04-15T03:29:33.016Z,19.75
2023-04-15T03:30:33.044Z,19.75
2023-04-15T03:31:33.089Z,19.71
2023-04-15T03:32:33.145Z,19.72
2023-04-15T03:33:33.126Z,19.66
2023-04-15T03:34:33.160Z,19.69
2023-04-15T03:35:33.190Z,19.67
2023-04-15T03:36:33.220Z,19.67
2023-04-15T03:37:33.237Z,19.68
2023-04-15T03:38:33.253Z,19.68
2023-04-15T03:39:33.287Z,19.69
2023-04-15T03:40:33.310Z,19.64
2023-04-15T03:41:33.335Z,19.64
2023-04-15T03:42:33.350Z,19.67
2023-04-15T03:43:33.386Z,19.64
2023-04-15T03:44:33.397Z,19.60
2023-04-15T03:45:33.429Z,19.54
2023-04-15T03:46:33.486Z,19.54
2023-04-15T03:47:33.540Z,19.58
2023-04-15T03:48:33.519Z,19.60
2023-04-15T03:49:33.530Z,19.58
2023-04-15T03:50:33.563Z,19.55
2023-04-15T03:51:33.610Z,19.53
2023-04-15T03:52:33.605Z,19.56
2023-04-15T03:53:33.630Z,19.57
2023-04-15T03:54:33.734Z,19.51
2023-04-15T03:55:33.708Z,19.48
2023-04-15T03:56:33.719Z,19.48
2023-04-15T03:57:33.750Z,19.52
2023-04-15T03:58:33.775Z,19.48
2023-04-15T03:59:33.894Z,19.46
2023-04-15T04:00:33.812Z,19.49
2023-04-15T04:01:33.862Z,19.51
2023-04-15T04:02:33.974Z,19.45
2023-04-15T04:03:34.064Z,19.46
2023-04-15T04:04:33.996Z,19.45
2023-04-15T04:05:33.968Z,19.48
2023-04-15T04:06:33.997Z,19.45
2023-04-15T04:07:34.008Z,19.40
2023-04-15T04:08:34.066Z,19.42
2023-04-15T04:09:34.085Z,19.41
2023-04-15T04:10:34.103Z,19.45
2023-04-15T04:11:34.125Z,19.38
2023-04-15T04:12:34.168Z,19.36
2023-04-15T04:13:34.206Z,19.30
2023-04-15T04:14:34.253Z,19.32
2023-04-15T04:15:34.286Z,19.33
2023-04-15T04:16:34.329Z,19.32
2023-04-15T04:17:34.316Z,19.29
2023-04-15T04:18:34.323Z,19.27
2023-04-15T04:19:34.390Z,19.30
2023-04-15T04:20:34.382Z,19.31
2023-04-15T04:21:34.387Z,19.27
2023-04-15T04:22:34.434Z,19.24
2023-04-15T04:23:34.462Z,19.26
2023-04-15T04:24:34.512Z,19.21
2023-04-15T04:25:34.586Z,19.22
2023-04-15T04:26:34.555Z,19.22
2023-04-15T04:27:34.567Z,19.22
2023-04-15T04:28:34.611Z,19.18
2023-04-15T04:29:34.765Z,19.19
2023-04-15T04:30:34.666Z,19.18
2023-04-15T04:31:34.712Z,19.19
2023-04-15T04:32:34.708Z,19.16
2023-04-15T04:33:34.775Z,19.14
2023-04-15T04:34:34.794Z,19.10
2023-04-15T04:35:34.848Z,19.19
2023-04-15T04:36:34.833Z,19.10
2023-04-15T04:37:34.888Z,19.10
2023-04-15T04:38:34.899Z,19.14
2023-04-15T04:39:34.959Z,19.09
2023-04-15T04:40:34.969Z,19.10
2023-04-15T04:41:34.997Z,19.07
2023-04-15T04:42:36.051Z,19.07
2023-04-15T04:43:35.024Z,19.08
2023-04-15T04:44:35.066Z,19.06
2023-04-15T04:45:35.120Z,19.04
2023-04-15T04:46:35.120Z,19.02
2023-04-15T04:47:35.156Z,19.02
2023-04-15T04:48:35.188Z,18.98
2023-04-15T04:49:35.241Z,18.94
2023-04-15T04:50:35.258Z,19.03
2023-04-15T04:51:35.299Z,19.01
2023-04-15T04:52:35.321Z,18.94
2023-04-15T04:53:35.336Z,19.00
2023-04-15T04:54:35.384Z,18.93
2023-04-15T04:55:35.406Z,18.92
2023-04-15T04:56:35.447Z,18.94
2023-04-15T04:57:35.472Z,18.90
2023-04-15T04:58:35.534Z,18.90
2023-04-15T04:59:35.525Z,18.97
2023-04-15T05:00:35.588Z,18.89
2023-04-15T05:01:35.643Z,18.92
2023-04-15T05:02:35.800Z,18.90
2023-04-15T05:03:35.725Z,18.89
2023-04-15T05:04:35.694Z,18.86
2023-04-15T05:05:35.722Z,18.88
2023-04-15T05:06:35.739Z,18.86
2023-04-15T05:07:35.781Z,18.87
2023-04-15T05:08:35.805Z,18.79
2023-04-15T05:09:35.826Z,18.77
2023-04-15T05:10:35.875Z,18.80
2023-04-15T05:11:35.916Z,18.82
2023-04-15T05:12:35.929Z,18.78
2023-04-15T05:13:35.966Z,18.77
2023-04-15T05:14:35.993Z,18.80
2023-04-15T05:15:36.020Z,18.81
2023-04-15T05:16:36.062Z,18.81
2023-04-15T05:17:36.130Z,18.79
2023-04-15T05:18:36.096Z,18.75
2023-04-15T05:19:36.123Z,18.73
2023-04-15T05:20:36.156Z,18.69
2023-04-15T05:21:38.256Z,18.71
2023-04-15T05:22:36.179Z,18.74
2023-04-15T05:23:36.181Z,18.74
2023-04-15T05:24:36.169Z,18.72
2023-04-15T05:25:36.176Z,18.66
2023-04-15T05:26:36.158Z,18.70
2023-04-15T05:27:36.168Z,18.71
2023-04-15T05:28:36.146Z,18.65
2023-04-15T05:29:36.137Z,18.73
2023-04-15T05:30:36.122Z,18.68
2023-04-15T05:31:36.239Z,18.65
2023-04-15T05:32:36.116Z,18.65
2023-04-15T05:33:36.094Z,18.62
2023-04-15T05:34:36.090Z,18.63
2023-04-15T05:35:36.093Z,18.58
2023-04-15T05:36:36.098Z,18.61
2023-04-15T05:37:36.070Z,18.60
2023-04-15T05:38:36.077Z,18.60
2023-04-15T05:39:36.080Z,18.61
2023-04-15T05:40:36.066Z,18.52
2023-04-15T05:41:36.047Z,18.64
2023-04-15T05:42:36.053Z,18.59
2023-04-15T05:43:36.037Z,18.58
2023-04-15T05:44:36.031Z,18.58
2023-04-15T05:45:36.018Z,18.57
2023-04-15T05:46:36.138Z,18.58
2023-04-15T05:47:36.038Z,18.54
2023-04-15T05:48:36.010Z,18.58
2023-04-15T05:49:36.005Z,18.50
2023-04-15T05:50:35.982Z,18.52
2023-04-15T05:51:35.997Z,18.54
2023-04-15T05:52:35.994Z,18.55
2023-04-15T05:53:35.964Z,18.52
2023-04-15T05:54:35.972Z,18.53
2023-04-15T05:55:35.947Z,18.55
2023-04-15T05:56:35.948Z,18.49
2023-04-15T05:57:35.946Z,18.49
2023-04-15T05:58:35.936Z,18.50
2023-04-15T05:59:35.932Z,18.44
2023-04-15T06:00:35.938Z,18.48
2023-04-15T06:01:35.937Z,18.49
2023-04-15T06:02:36.022Z,18.46
2023-04-15T06:03:36.064Z,18.49
2023-04-15T06:04:36.039Z,18.51
2023-04-15T06:05:35.911Z,18.49
2023-04-15T06:06:35.892Z,18.46
2023-04-15T06:07:35.880Z,18.45
2023-04-15T06:08:35.881Z,18.49
2023-04-15T06:09:35.889Z,18.44
2023-04-15T06:10:35.851Z,18.41
2023-04-15T06:11:35.864Z,18.43
2023-04-15T06:12:35.863Z,18.40
2023-04-15T06:13:35.836Z,18.45
2023-04-15T06:14:35.858Z,18.38
2023-04-15T06:15:35.814Z,18.38
2023-04-15T06:16:35.868Z,18.42
2023-04-15T06:17:35.872Z,18.38
2023-04-15T06:18:35.802Z,18.39
2023-04-15T06:19:35.799Z,18.37
2023-04-15T06:20:35.795Z,18.37
2023-04-15T06:21:35.784Z,18.32
2023-04-15T06:22:35.772Z,18.38
2023-04-15T06:23:35.775Z,18.33
2023-04-15T06:24:35.769Z,18.38
2023-04-15T06:25:35.746Z,18.39
2023-04-15T06:26:35.737Z,18.39
2023-04-15T06:27:35.730Z,18.38
2023-04-15T06:28:35.735Z,18.35
2023-04-15T06:29:35.738Z,18.34
2023-04-15T06:30:35.722Z,18.34
2023-04-15T06:31:35.725Z,18.34
2023-04-15T06:32:35.738Z,18.28
2023-04-15T06:33:35.703Z,18.29
2023-04-15T06:34:35.721Z,18.29
2023-04-15T06:35:35.749Z,18.34
2023-04-15T06:36:35.758Z,18.34
2023-04-15T06:37:35.771Z,18.33
2023-04-15T06:38:35.813Z,18.32
2023-04-15T06:39:35.841Z,18.29
2023-04-15T06:40:35.848Z,18.28
2023-04-15T06:41:35.885Z,18.24
2023-04-15T06:42:35.914Z,18.29
2023-04-15T06:43:35.930Z,18.27
2023-04-15T06:44:35.929Z,18.27
2023-04-15T06:45:35.990Z,18.26
2023-04-15T06:46:35.988Z,18.23
2023-04-15T06:47:36.012Z,18.23
2023-04-15T06:48:36.022Z,18.25
2023-04-15T06:49:36.058Z,18.22
2023-04-15T06:50:36.069Z,18.18
2023-04-15T06:51:36.087Z,18.16
2023-04-15T06:52:36.138Z,18.20
2023-04-15T06:53:36.142Z,18.17
2023-04-15T06:54:36.169Z,18.21
2023-04-15T06:55:36.178Z,18.20
2023-04-15T06:56:36.215Z,18.14
2023-04-15T06:57:36.220Z,18.18
2023-04-15T06:58:36.270Z,18.14
2023-04-15T06:59:36.272Z,18.17
2023-04-15T07:00:36.314Z,18.16
2023-04-15T07:01:36.665Z,18.15
2023-04-15T07:02:36.514Z,18.16
2023-04-15T07:03:36.375Z,18.11
2023-04-15T07:04:36.461Z,18.13
2023-04-15T07:05:36.420Z,18.12
2023-04-15T07:06:36.442Z,18.14
2023-04-15T07:07:36.502Z,18.12
2023-04-15T07:08:36.494Z,18.11
2023-04-15T07:09:36.532Z,18.06
2023-04-15T07:10:36.563Z,18.03
2023-04-15T07:11:36.570Z,18.07
2023-04-15T07:12:36.593Z,18.07
2023-04-15T07:13:36.602Z,18.05
2023-04-15T07:14:36.631Z,18.05
2023-04-15T07:15:36.668Z,18.05
2023-04-15T07:16:36.704Z,18.05
2023-04-15T07:17:36.728Z,18.03
2023-04-15T07:18:36.715Z,18.05
2023-04-15T07:19:36.754Z,18.03
2023-04-15T07:20:36.776Z,18.00
2023-04-15T07:21:36.796Z,17.95
2023-04-15T07:22:36.802Z,18.00
2023-04-15T07:23:36.833Z,18.00
2023-04-15T07:24:36.849Z,17.98
2023-04-15T07:25:36.863Z,17.98
2023-04-15T07:26:36.903Z,17.94
2023-04-15T07:27:36.926Z,17.96
2023-04-15T07:28:36.927Z,17.98
2023-04-15T07:29:36.938Z,17.96
2023-04-15T07:30:37.008Z,17.93
2023-04-15T07:31:37.138Z,17.97
2023-04-15T07:32:37.046Z,17.93
2023-04-15T07:33:37.013Z,17.97
2023-04-15T07:34:37.064Z,17.94
2023-04-15T07:35:37.089Z,17.97
2023-04-15T07:36:37.107Z,17.97
2023-04-15T07:37:37.124Z,17.95
2023-04-15T07:38:37.120Z,17.93
2023-04-15T07:39:37.143Z,17.95
2023-04-15T07:40:37.182Z,18.01
2023-04-15T07:41:37.181Z,17.93
2023-04-15T07:42:38.565Z,18.00
2023-04-15T07:43:37.183Z,17.99
2023-04-15T07:44:37.196Z,18.01
2023-04-15T07:45:37.182Z,18.00
2023-04-15T07:46:37.251Z,18.00
2023-04-15T07:47:37.219Z,17.97
2023-04-15T07:48:37.684Z,18.02
2023-04-15T07:49:37.131Z,18.01
2023-04-15T07:50:37.142Z,18.01
2023-04-15T07:51:37.133Z,18.00
2023-04-15T07:52:37.135Z,18.00
2023-04-15T07:53:37.107Z,18.02
2023-04-15T07:54:37.111Z,18.01
2023-04-15T07:55:37.105Z,18.00
2023-04-15T07:56:37.091Z,18.03
2023-04-15T07:57:37.106Z,18.06
2023-04-15T07:58:37.079Z,18.03
2023-04-15T07:59:37.086Z,18.04
2023-04-15T08:00:37.065Z,18.01
2023-04-15T08:01:37.067Z,18.04
2023-04-15T08:02:38.300Z,18.05
2023-04-15T08:03:37.137Z,18.03
2023-04-15T08:04:37.262Z,18.03
2023-04-15T08:05:37.050Z,17.97
2023-04-15T08:06:37.028Z,18.02
2023-04-15T08:07:37.029Z,18.00
2023-04-15T08:08:37.008Z,18.00
2023-04-15T08:09:36.999Z,17.98
2023-04-15T08:10:36.999Z,17.99
2023-04-15T08:11:36.987Z,17.98
2023-04-15T08:12:37.004Z,17.94
2023-04-15T08:13:36.988Z,17.95
2023-04-15T08:14:36.962Z,17.92
2023-04-15T08:15:36.962Z,17.91
2023-04-15T08:16:37.060Z,17.94
2023-04-15T08:17:36.982Z,17.91
2023-04-15T08:18:36.953Z,17.92
2023-04-15T08:19:36.933Z,17.95
2023-04-15T08:20:36.939Z,17.91
2023-04-15T08:21:36.920Z,17.94
2023-04-15T08:22:36.923Z,17.93
2023-04-15T08:23:36.908Z,17.91
2023-04-15T08:24:36.891Z,17.91
2023-04-15T08:25:36.886Z,17.89
2023-04-15T08:26:36.892Z,17.87
2023-04-15T08:27:36.888Z,17.87
2023-04-15T08:28:36.935Z,17.85
2023-04-15T08:29:36.971Z,17.85
2023-04-15T08:30:36.985Z,17.84
2023-04-15T08:31:37.055Z,17.85
2023-04-15T08:32:37.002Z,17.82
2023-04-15T08:33:36.983Z,17.79
2023-04-15T08:34:36.967Z,17.79
2023-04-15T08:35:36.968Z,17.79
2023-04-15T08:36:36.962Z,17.78
2023-04-15T08:37:36.961Z,17.77
2023-04-15T08:38:36.979Z,17.73
2023-04-15T08:39:36.971Z,17.73
2023-04-15T08:40:36.994Z,17.74
2023-04-15T08:41:37.022Z,17.70
2023-04-15T08:42:37.025Z,17.67
2023-04-15T08:43:37.065Z,17.62
2023-04-15T08:44:37.131Z,17.57
2023-04-15T08:45:37.158Z,17.59
2023-04-15T08:46:37.272Z,17.54
2023-04-15T08:47:37.320Z,17.49
2023-04-15T08:48:37.320Z,17.49
2023-04-15T08:49:37.374Z,17.48
2023-04-15T08:50:37.437Z,17.42
2023-04-15T08:51:37.491Z,17.43
2023-04-15T08:52:37.562Z,17.44
2023-04-15T08:53:37.615Z,17.46
2023-04-15T08:54:37.661Z,17.45
2023-04-15T08:55:37.715Z,17.44
2023-04-15T08:56:37.872Z,17.45
2023-04-15T08:57:37.842Z,17.43
2023-04-15T08:58:37.887Z,17.45
2023-04-15T08:59:37.936Z,17.46
2023-04-15T09:00:37.997Z,17.46
2023-04-15T09:01:38.315Z,17.44
2023-04-15T09:02:38.202Z,17.44
2023-04-15T09:03:38.210Z,17.41
2023-04-15T09:04:38.189Z,17.45
2023-04-15T09:05:38.231Z,17.46
2023-04-15T09:06:38.285Z,17.49
2023-04-15T09:07:38.345Z,17.48
2023-04-15T09:08:38.385Z,17.49
2023-04-15T09:09:38.428Z,17.50
2023-04-15T09:10:38.509Z,17.49
2023-04-15T09:11:38.561Z,17.49
2023-04-15T09:12:38.577Z,17.47
2023-04-15T09:13:38.628Z,17.47
2023-04-15T09:14:38.678Z,17.47
2023-04-15T09:15:38.710Z,17.47
2023-04-15T09:16:38.810Z,17.46
2023-04-15T09:17:38.848Z,17.41
2023-04-15T09:18:38.864Z,17.40
2023-04-15T09:19:38.886Z,17.37
2023-04-15T09:20:38.917Z,17.36
2023-04-15T09:21:38.962Z,17.35
2023-04-15T09:22:38.995Z,17.35
2023-04-15T09:23:39.034Z,17.35
2023-04-15T09:24:39.080Z,17.35
2023-04-15T09:25:39.101Z,17.37
2023-04-15T09:26:39.137Z,17.34
2023-04-15T09:27:39.153Z,17.35
2023-04-15T09:28:39.182Z,17.34
2023-04-15T09:29:39.215Z,17.32
2023-04-15T09:30:39.298Z,17.29
2023-04-15T09:31:39.255Z,17.30
2023-04-15T09:32:39.301Z,17.28
2023-04-15T09:33:39.308Z,17.22
2023-04-15T09:34:39.347Z,17.24
2023-04-15T09:35:39.357Z,17.23
2023-04-15T09:36:39.373Z,17.24
2023-04-15T09:37:39.381Z,17.22
2023-04-15T09:38:39.418Z,17.22
2023-04-15T09:39:39.427Z,17.24
2023-04-15T09:40:39.416Z,17.24
2023-04-15T09:41:39.437Z,17.22
2023-04-15T09:42:39.506Z,17.24
2023-04-15T09:43:39.483Z,17.24
2023-04-15T09:44:39.488Z,17.21
2023-04-15T09:45:39.515Z,17.20
2023-04-15T09:46:39.511Z,17.18
2023-04-15T09:47:39.592Z,17.17
2023-04-15T09:48:39.521Z,17.17
2023-04-15T09:49:39.597Z,17.16
2023-04-15T09:50:39.555Z,17.16
2023-04-15T09:51:39.543Z,17.16
2023-04-15T09:52:39.556Z,17.15
2023-04-15T09:53:39.547Z,17.13
2023-04-15T09:54:39.572Z,17.12
2023-04-15T09:55:39.569Z,17.12
2023-04-15T09:56:39.560Z,17.12
2023-04-15T09:57:39.551Z,17.12
2023-04-15T09:58:39.556Z,17.10
2023-04-15T09:59:39.563Z,17.09
2023-04-15T10:00:39.568Z,17.11
2023-04-15T10:01:39.570Z,17.11
2023-04-15T10:02:39.665Z,17.10
2023-04-15T10:03:39.707Z,17.12
2023-04-15T10:04:39.571Z,17.13
2023-04-15T10:05:39.575Z,17.16
2023-04-15T10:06:39.589Z,17.13
2023-04-15T10:07:39.568Z,17.14
2023-04-15T10:08:39.588Z,17.14
2023-04-15T10:09:39.680Z,17.15
2023-04-15T10:10:39.618Z,17.15
2023-04-15T10:11:39.597Z,17.16
2023-04-15T10:12:39.595Z,17.16
2023-04-15T10:13:39.593Z,17.12
2023-04-15T10:14:39.601Z,17.12
2023-04-15T10:15:39.612Z,17.12
2023-04-15T10:16:39.613Z,17.10
2023-04-15T10:17:39.611Z,17.13
2023-04-15T10:18:39.619Z,17.12
2023-04-15T10:19:39.626Z,17.10
2023-04-15T10:20:39.616Z,17.10
2023-04-15T10:21:39.607Z,17.08
2023-04-15T10:22:39.623Z,17.08
2023-04-15T10:23:39.608Z,17.06
2023-04-15T10:24:39.602Z,17.06
2023-04-15T10:25:39.609Z,17.05
2023-04-15T10:26:39.631Z,17.04
2023-04-15T10:27:39.598Z,17.03
2023-04-15T10:28:39.593Z,17.01
2023-04-15T10:29:39.612Z,17.01
2023-04-15T10:30:39.587Z,17.00
2023-04-15T10:31:39.626Z,16.98
2023-04-15T10:32:39.620Z,16.99
2023-04-15T10:33:39.617Z,16.98
2023-04-15T10:34:39.615Z,16.98
2023-04-15T10:35:39.606Z,16.94
2023-04-15T10:36:39.621Z,16.95
2023-04-15T10:37:39.601Z,16.93
2023-04-15T10:38:39.601Z,16.91
2023-04-15T10:39:39.624Z,16.93
2023-04-15T10:40:39.631Z,16.90
2023-04-15T10:41:39.612Z,16.90
2023-04-15T10:42:39.613Z,16.89
2023-04-15T10:43:39.633Z,16.89
2023-04-15T10:44:39.627Z,16.88
2023-04-15T10:45:40.354Z,16.87
2023-04-15T10:46:39.696Z,16.86
2023-04-15T10:47:39.683Z,16.85
2023-04-15T10:48:39.639Z,16.82
2023-04-15T10:49:39.636Z,16.82
2023-04-15T10:50:39.632Z,16.78
2023-04-15T10:51:39.663Z,16.80
2023-04-15T10:52:39.652Z,16.78
2023-04-15T10:53:39.637Z,16.75
2023-04-15T10:54:39.705Z,16.73
2023-04-15T10:55:39.666Z,16.76
2023-04-15T10:56:39.658Z,16.74
2023-04-15T10:57:39.672Z,16.70
2023-04-15T10:58:39.669Z,16.72
2023-04-15T10:59:39.678Z,16.70
2023-04-15T11:00:39.672Z,16.70
2023-04-15T11:01:39.700Z,16.68
2023-04-15T11:02:39.884Z,16.71
2023-04-15T11:03:39.925Z,16.66
2023-04-15T11:04:41.793Z,16.69
2023-04-15T11:05:39.703Z,16.66
2023-04-15T11:06:39.677Z,16.66
2023-04-15T11:07:39.669Z,16.63
2023-04-15T11:08:39.670Z,16.64
2023-04-15T11:09:39.686Z,16.64
2023-04-15T11:10:39.646Z,16.66
2023-04-15T11:11:39.647Z,16.66
2023-04-15T11:12:39.643Z,16.67
2023-04-15T11:13:39.620Z,16.63
2023-04-15T11:14:39.628Z,16.65
2023-04-15T11:15:39.608Z,16.66
2023-04-15T11:16:39.640Z,16.68
2023-04-15T11:17:39.626Z,16.67
2023-04-15T11:18:39.600Z,16.70
2023-04-15T11:19:39.596Z,16.66
2023-04-15T11:20:39.611Z,16.70
2023-04-15T11:21:39.559Z,16.71
2023-04-15T11:22:39.568Z,16.72
2023-04-15T11:23:39.548Z,16.74
2023-04-15T11:24:39.550Z,16.76
2023-04-15T11:25:39.547Z,16.75
2023-04-15T11:26:39.542Z,16.73
2023-04-15T11:27:39.517Z,16.78
2023-04-15T11:28:39.536Z,16.78
2023-04-15T11:29:39.519Z,16.80
2023-04-15T11:30:39.520Z,16.76
2023-04-15T11:31:39.523Z,16.79
2023-04-15T11:32:39.497Z,16.80
2023-04-15T11:33:39.495Z,16.80
2023-04-15T11:34:39.470Z,16.79
2023-04-15T11:35:39.467Z,16.80
2023-04-15T11:36:39.458Z,16.81
2023-04-15T11:37:39.466Z,16.84
2023-04-15T11:38:39.436Z,16.86
2023-04-15T11:39:39.442Z,16.87
2023-04-15T11:40:39.450Z,16.90
2023-04-15T11:41:39.430Z,16.89
2023-04-15T11:42:49.169Z,16.93
2023-04-15T11:43:40.432Z,16.93
2023-04-15T11:44:39.401Z,16.95
2023-04-15T11:45:39.424Z,16.95
2023-04-15T11:46:39.410Z,16.95
2023-04-15T11:47:39.419Z,16.96
2023-04-15T11:48:39.370Z,16.98
2023-04-15T11:49:39.360Z,16.98
2023-04-15T11:50:39.398Z,16.99
2023-04-15T11:51:39.360Z,16.99
2023-04-15T11:52:39.357Z,17.02
2023-04-15T11:53:39.350Z,17.02
2023-04-15T11:54:39.332Z,17.01
2023-04-15T11:55:39.349Z,16.99
2023-04-15T11:56:39.330Z,17.03
2023-04-15T11:57:39.336Z,17.03
2023-04-15T11:58:39.402Z,17.01
2023-04-15T11:59:45.404Z,17.08
2023-04-15T12:00:40.290Z,17.07
2023-04-15T12:01:39.306Z,17.06
2023-04-15T12:02:39.367Z,17.07
2023-04-15T12:03:39.382Z,17.06
2023-04-15T12:04:39.378Z,17.09
2023-04-15T12:05:39.274Z,17.12
2023-04-15T12:06:39.319Z,17.10
2023-04-15T12:07:39.233Z,17.11
2023-04-15T12:08:39.246Z,17.12
2023-04-15T12:09:39.235Z,17.14
2023-04-15T12:10:39.215Z,17.14
2023-04-15T12:11:39.205Z,17.12
2023-04-15T12:12:39.217Z,17.10
2023-04-15T12:13:39.198Z,17.11
2023-04-15T12:14:39.209Z,17.14
2023-04-15T12:15:39.294Z,17.13
2023-04-15T12:16:48.271Z,17.10
2023-04-15T12:17:52.146Z,17.12
2023-04-15T12:18:40.162Z,17.14
2023-04-15T12:19:39.148Z,17.17
2023-04-15T12:20:39.162Z,17.16
2023-04-15T12:21:39.170Z,17.12
2023-04-15T12:22:39.154Z,17.13
2023-04-15T12:23:39.131Z,17.10
2023-04-15T12:24:39.115Z,17.16
2023-04-15T12:25:39.133Z,17.15
2023-04-15T12:26:39.118Z,17.18
2023-04-15T12:27:39.112Z,17.17
2023-04-15T12:28:39.133Z,17.19
2023-04-15T12:29:39.122Z,17.20
2023-04-15T12:30:39.101Z,17.23
2023-04-15T12:31:39.202Z,17.25
2023-04-15T12:32:39.976Z,17.25
2023-04-15T12:33:39.085Z,17.24
2023-04-15T12:34:39.088Z,17.26
2023-04-15T12:35:39.102Z,17.28
2023-04-15T12:36:39.106Z,17.29
2023-04-15T12:37:39.128Z,17.30
2023-04-15T12:38:39.149Z,17.33
2023-04-15T12:39:39.149Z,17.35
2023-04-15T12:40:39.160Z,17.36
2023-04-15T12:41:39.187Z,17.37
2023-04-15T12:42:39.209Z,17.38
2023-04-15T12:43:39.227Z,17.38
2023-04-15T12:44:39.250Z,17.38
2023-04-15T12:45:39.257Z,17.40
2023-04-15T12:46:39.306Z,17.43
2023-04-15T12:47:39.306Z,17.45
2023-04-15T12:48:39.309Z,17.45
2023-04-15T12:49:39.323Z,17.47
2023-04-15T12:50:39.352Z,17.50
2023-04-15T12:51:39.359Z,17.48
2023-04-15T12:52:39.367Z,17.53